Time;durP1;ratioP1;P1;durP2;ratioP2;P2;SDS_P1;SDS_P2;PMS_P1;PMS_P2;Temp;Humidity;BMP_temperature;BMP_pressure;BME280_temperature;BME280_humidity;BME280_pressure;Samples;Min_cycle;Max_cycle;Signal;HPM_P1;HPM_P2
2023/09/03 00:00:28;;;;;;;23.27;15.30;;;15.80;99.90;;;;;;4900795;29;20036;-78
2023/09/03 00:02:54;;;;;;;23.60;15.70;;;15.90;99.90;;;;;;4559813;29;10000377;-79
2023/09/03 00:05:20;;;;;;;25.63;15.70;;;15.90;99.90;;;;;;4900931;29;20032;-79
2023/09/03 00:07:46;;;;;;;28.60;17.30;;;15.90;99.90;;;;;;4900601;29;20039;-80
2023/09/03 00:10:11;;;;;;;25.25;16.70;;;15.90;99.90;;;;;;4900415;29;20081;-79
2023/09/03 00:12:37;;;;;;;31.10;17.48;;;15.90;99.90;;;;;;4890507;29;20037;-79
2023/09/03 00:15:03;;;;;;;26.35;15.95;;;15.90;99.90;;;;;;4912049;29;20036;-79
2023/09/03 00:17:29;;;;;;;24.83;15.43;;;15.80;99.90;;;;;;4904221;29;20028;-79
2023/09/03 00:19:54;;;;;;;30.77;16.77;;;15.80;99.90;;;;;;4898626;29;20051;-79
2023/09/03 00:22:20;;;;;;;26.75;16.40;;;15.80;99.90;;;;;;4902394;29;20206;-79
2023/09/03 00:24:46;;;;;;;25.10;15.82;;;15.70;99.90;;;;;;4901297;29;20433;-77
2023/09/03 00:27:11;;;;;;;25.88;15.60;;;15.70;99.90;;;;;;4898577;29;20032;-79
2023/09/03 00:29:37;;;;;;;25.48;15.88;;;15.70;99.90;;;;;;4901032;29;20044;-79
2023/09/03 00:32:03;;;;;;;26.55;16.85;;;15.70;99.90;;;;;;4898815;29;20068;-79
2023/09/03 00:34:29;;;;;;;29.60;17.55;;;15.70;99.90;;;;;;4891992;29;20036;-79
2023/09/03 00:36:54;;;;;;;26.45;15.68;;;15.70;99.90;;;;;;4903649;29;20043;-79
2023/09/03 00:39:20;;;;;;;28.38;16.40;;;15.60;99.90;;;;;;4899129;29;20034;-79
2023/09/03 00:41:46;;;;;;;25.73;15.95;;;15.70;99.90;;;;;;4901449;29;20545;-80
2023/09/03 00:44:14;;;;;;;26.40;16.25;;;15.60;99.90;;;;;;4903613;29;20032;-79
2023/09/03 00:46:44;;;;;;;26.02;16.77;;;15.60;99.90;;;;;;4917064;29;20099;-79
2023/09/03 00:49:12;;;;;;;27.17;16.83;;;15.60;99.90;;;;;;4903354;29;20082;-79
2023/09/03 00:51:38;;;;;;;24.48;15.57;;;15.60;99.90;;;;;;4900035;29;20396;-79
2023/09/03 00:54:05;;;;;;;26.17;16.55;;;15.50;99.90;;;;;;4916802;29;20561;-79
2023/09/03 00:56:31;;;;;;;26.38;16.42;;;15.50;99.90;;;;;;4902184;29;20062;-79
2023/09/03 00:58:59;;;;;;;25.95;16.17;;;15.50;99.90;;;;;;4909490;29;20078;-79
2023/09/03 01:01:24;;;;;;;26.42;16.02;;;15.50;99.90;;;;;;4902899;29;20039;-79
2023/09/03 01:03:50;;;;;;;24.45;14.57;;;15.50;99.90;;;;;;4899990;29;20043;-79
2023/09/03 01:06:16;;;;;;;25.75;14.57;;;15.40;99.90;;;;;;4897647;29;20819;-79
2023/09/03 01:08:42;;;;;;;22.60;13.75;;;15.40;99.90;;;;;;4901244;29;20047;-79
2023/09/03 01:11:36;;;;;;;17.80;12.50;;;15.40;99.90;;;;;;4900739;29;20040;-79
2023/09/03 01:14:38;;;;;;;18.75;12.40;;;15.30;99.90;;;;;;4891500;29;20520;-78
2023/09/03 01:17:17;;;;;;;18.73;11.98;;;15.30;99.90;;;;;;4890491;29;20042;-78
2023/09/03 01:20:22;;;;;;;17.92;11.52;;;15.20;99.90;;;;;;4900574;29;20062;-79
2023/09/03 01:23:40;;;;;;;16.90;11.25;;;15.20;99.90;;;;;;4889657;29;20375;-79
2023/09/03 01:26:37;;;;;;;17.80;11.45;;;15.20;99.90;;;;;;4897971;29;20491;-79
2023/09/03 01:29:03;;;;;;;16.05;10.77;;;15.10;99.90;;;;;;4908972;29;20623;-78
2023/09/03 01:31:30;;;;;;;16.35;10.90;;;15.10;99.90;;;;;;4903314;29;20048;-79
2023/09/03 01:34:02;;;;;;;16.67;10.82;;;15.10;99.90;;;;;;4896748;29;20028;-78
2023/09/03 01:36:31;;;;;;;;;;;15.10;99.90;;;;;;4901494;29;20051;-78
2023/09/03 01:39:03;;;;;;;16.75;10.15;;;15.10;99.90;;;;;;4888503;29;19916;-79
2023/09/03 01:41:36;;;;;;;15.82;10.63;;;15.10;99.90;;;;;;4904033;29;20031;-79
2023/09/03 01:44:02;;;;;;;22.65;12.55;;;15.10;99.90;;;;;;4901275;29;20065;-79
2023/09/03 01:46:46;;;;;;;21.23;13.32;;;15.10;99.90;;;;;;4895484;29;20045;-79
2023/09/03 01:49:23;;;;;;;20.83;13.85;;;15.00;99.90;;;;;;4896506;29;20062;-78
2023/09/03 01:51:57;;;;;;;23.25;13.98;;;15.10;99.90;;;;;;4903256;29;20035;-79
2023/09/03 01:54:29;;;;;;;26.38;14.95;;;15.10;99.90;;;;;;4902194;29;20036;-78
2023/09/03 01:57:02;;;;;;;28.80;16.17;;;15.10;99.90;;;;;;4900530;29;20039;-78
2023/09/03 01:59:41;;;;;;;23.52;14.98;;;15.00;99.90;;;;;;4897841;29;20408;-79
2023/09/03 02:02:09;;;;;;;24.08;14.02;;;15.00;99.90;;;;;;4896844;29;20095;-79
2023/09/03 02:04:35;;;;;;;25.42;14.05;;;15.00;99.90;;;;;;4904608;29;20043;-79
2023/09/03 02:07:00;;;;;;;20.45;13.13;;;15.00;99.90;;;;;;4904262;29;20480;-79
2023/09/03 02:09:26;;;;;;;19.65;11.70;;;15.00;99.90;;;;;;4900969;29;20275;-79
2023/09/03 02:11:52;;;;;;;16.13;9.85;;;14.90;99.90;;;;;;4902659;29;20377;-79
2023/09/03 02:14:17;;;;;;;12.75;8.55;;;14.90;99.90;;;;;;4901586;29;20040;-79
2023/09/03 02:16:43;;;;;;;16.27;10.65;;;14.80;99.90;;;;;;4907266;29;20108;-78
2023/09/03 02:19:09;;;;;;;15.23;10.57;;;14.80;99.90;;;;;;4903083;29;20033;-78
2023/09/03 02:21:34;;;;;;;19.63;12.23;;;14.80;99.90;;;;;;4902120;29;20190;-78
2023/09/03 02:24:00;;;;;;;18.48;11.23;;;14.80;99.90;;;;;;4916775;29;20434;-78
2023/09/03 02:26:26;;;;;;;19.02;11.93;;;14.80;99.90;;;;;;4901094;29;20040;-77
2023/09/03 02:28:52;;;;;;;18.48;11.55;;;14.80;99.90;;;;;;4914623;29;20036;-77
2023/09/03 02:31:17;;;;;;;21.17;11.70;;;14.70;99.90;;;;;;4898741;29;20044;-78
2023/09/03 02:33:43;;;;;;;15.32;9.32;;;14.70;99.90;;;;;;4900057;29;20116;-79
2023/09/03 02:36:09;;;;;;;18.23;11.07;;;14.70;99.90;;;;;;4897774;29;20432;-78
2023/09/03 02:38:34;;;;;;;20.52;12.13;;;14.70;99.90;;;;;;4899694;29;20497;-79
2023/09/03 02:41:00;;;;;;;20.27;11.75;;;14.60;99.90;;;;;;4902242;29;20031;-78
2023/09/03 02:43:25;;;;;;;18.30;10.90;;;14.60;99.90;;;;;;4905110;29;20063;-78
2023/09/03 02:45:52;;;;;;;16.30;10.15;;;14.60;99.90;;;;;;4901561;29;20036;-77
2023/09/03 02:48:17;;;;;;;19.88;11.25;;;14.60;99.90;;;;;;4905031;29;20460;-78
2023/09/03 02:50:43;;;;;;;18.98;11.45;;;14.50;99.90;;;;;;4895014;29;20041;-78
2023/09/03 02:53:09;;;;;;;21.08;12.80;;;14.50;99.90;;;;;;4902558;29;20066;-78
2023/09/03 02:55:34;;;;;;;16.48;10.98;;;14.50;99.90;;;;;;4902178;29;20059;-78
2023/09/03 02:58:00;;;;;;;17.27;11.02;;;14.50;99.90;;;;;;4899565;29;20108;-78
2023/09/03 03:00:26;;;;;;;22.20;12.55;;;14.50;99.90;;;;;;4904914;29;20036;-79
2023/09/03 03:02:52;;;;;;;17.50;11.75;;;14.50;99.90;;;;;;4902972;29;20035;-79
2023/09/03 03:05:18;;;;;;;18.30;11.73;;;14.50;99.90;;;;;;4891471;29;20044;-78
2023/09/03 03:07:44;;;;;;;18.65;11.55;;;14.50;99.90;;;;;;4903267;29;20056;-78
2023/09/03 03:10:11;;;;;;;24.77;12.50;;;14.50;99.90;;;;;;4899446;29;20049;-78
2023/09/03 03:12:37;;;;;;;20.52;12.02;;;14.50;99.90;;;;;;4897434;29;20496;-78
2023/09/03 03:15:03;;;;;;;21.02;12.27;;;14.50;99.90;;;;;;4902448;29;20064;-78
2023/09/03 03:17:29;;;;;;;19.27;12.27;;;14.50;99.90;;;;;;4914778;29;20072;-79
2023/09/03 03:19:55;;;;;;;19.13;12.40;;;14.50;99.90;;;;;;4912008;29;20095;-78
2023/09/03 03:22:20;;;;;;;20.35;11.80;;;14.50;99.90;;;;;;4901074;29;20449;-78
2023/09/03 03:24:46;;;;;;;18.90;12.38;;;14.50;99.90;;;;;;4904721;29;20030;-78
2023/09/03 03:27:11;;;;;;;17.70;11.38;;;14.50;99.90;;;;;;4898836;29;20032;-78
2023/09/03 03:29:37;;;;;;;16.42;10.45;;;14.40;99.90;;;;;;4897390;29;20134;-78
2023/09/03 03:32:04;;;;;;;12.57;7.63;;;14.40;99.90;;;;;;4899188;29;20043;-78
2023/09/03 03:34:30;;;;;;;9.70;7.47;;;14.30;99.90;;;;;;4903526;29;20375;-78
2023/09/03 03:36:56;;;;;;;11.98;8.05;;;14.20;99.90;;;;;;4896673;29;20028;-78
2023/09/03 03:39:22;;;;;;;8.18;6.35;;;14.20;99.90;;;;;;4897282;29;20046;-78
2023/09/03 03:41:47;;;;;;;9.75;7.38;;;14.10;99.90;;;;;;4898053;29;20024;-77
2023/09/03 03:44:13;;;;;;;11.52;7.47;;;14.00;99.90;;;;;;4897670;29;20159;-78
2023/09/03 03:46:39;;;;;;;13.65;9.23;;;14.00;99.90;;;;;;4914265;29;20092;-78
2023/09/03 03:49:04;;;;;;;11.07;8.40;;;13.90;99.90;;;;;;4902603;29;20130;-78
2023/09/03 03:51:30;;;;;;;13.32;9.27;;;13.90;99.90;;;;;;4902333;29;20425;-78
2023/09/03 03:53:59;;;;;;;13.93;9.50;;;13.90;99.90;;;;;;4898499;29;20032;-78
2023/09/03 03:56:24;;;;;;;13.25;8.90;;;13.90;99.90;;;;;;4901108;29;20130;-78
2023/09/03 03:58:50;;;;;;;14.32;9.52;;;13.90;99.90;;;;;;4902163;29;20631;-78
2023/09/03 04:01:20;;;;;;;13.35;9.57;;;13.80;99.90;;;;;;4902565;29;20028;-78
2023/09/03 04:03:48;;;;;;;14.23;9.27;;;13.80;99.90;;;;;;4898161;29;20044;-78
2023/09/03 04:06:14;;;;;;;14.77;10.10;;;13.80;99.90;;;;;;4901901;29;20032;-78
2023/09/03 04:08:43;;;;;;;15.35;10.02;;;13.80;99.90;;;;;;4901677;29;20120;-78
2023/09/03 04:11:09;;;;;;;16.25;10.13;;;13.80;99.90;;;;;;4898693;29;20054;-78
2023/09/03 04:13:36;;;;;;;15.98;10.45;;;13.80;99.90;;;;;;4902342;29;20099;-78
2023/09/03 04:16:10;;;;;;;16.80;11.00;;;13.80;99.90;;;;;;4900694;29;20516;-78
2023/09/03 04:18:36;;;;;;;17.05;11.07;;;13.90;99.90;;;;;;4899250;29;20119;-77
2023/09/03 04:21:02;;;;;;;17.88;10.88;;;13.90;99.90;;;;;;4898123;29;20020;-78
2023/09/03 04:23:28;;;;;;;18.05;11.68;;;13.90;99.90;;;;;;4900085;29;20838;-79
2023/09/03 04:25:56;;;;;;;18.88;12.07;;;13.90;99.90;;;;;;4898613;29;20035;-77
2023/09/03 04:28:22;;;;;;;22.90;12.68;;;14.00;99.90;;;;;;4902288;29;20190;-78
2023/09/03 04:30:59;;;;;;;23.67;12.73;;;14.00;99.90;;;;;;4899625;29;20040;-78
2023/09/03 04:33:25;;;;;;;21.85;12.32;;;14.00;99.90;;;;;;4895108;29;20044;-77
2023/09/03 04:35:55;;;;;;;19.65;10.73;;;14.00;99.90;;;;;;4894390;29;20032;-78
2023/09/03 04:38:21;;;;;;;13.90;8.35;;;14.00;99.90;;;;;;4896002;29;20036;-78
2023/09/03 04:40:47;;;;;;;11.80;7.88;;;13.90;99.90;;;;;;4900542;29;20385;-78
2023/09/03 04:43:13;;;;;;;13.80;7.68;;;13.90;99.90;;;;;;4898904;29;20038;-78
2023/09/03 04:45:51;;;;;;;17.42;10.13;;;13.80;99.90;;;;;;4902614;29;20044;-78
2023/09/03 04:48:19;;;;;;;17.05;9.85;;;13.70;99.90;;;;;;4900879;29;20138;-78
2023/09/03 04:50:44;;;;;;;19.77;9.75;;;13.70;99.90;;;;;;4900427;29;20059;-78
2023/09/03 04:53:13;;;;;;;15.55;9.35;;;13.70;99.90;;;;;;4893229;29;20036;-79
2023/09/03 04:55:39;;;;;;;15.75;9.93;;;13.60;99.90;;;;;;4900693;29;20036;-78
2023/09/03 04:58:05;;;;;;;15.82;9.85;;;13.60;99.90;;;;;;4895819;29;20028;-78
2023/09/03 05:00:31;;;;;;;18.00;9.85;;;13.50;99.90;;;;;;4898232;29;20504;-78
2023/09/03 05:02:57;;;;;;;17.83;10.85;;;13.60;99.90;;;;;;4895531;29;20035;-78
2023/09/03 05:05:23;;;;;;;18.25;10.48;;;13.50;99.90;;;;;;4897551;29;20067;-77
2023/09/03 05:07:48;;;;;;;14.05;10.00;;;13.50;99.90;;;;;;4899943;29;20090;-77
2023/09/03 05:10:14;;;;;;;12.38;9.07;;;13.50;99.90;;;;;;4901764;29;20587;-77
2023/09/03 05:12:40;;;;;;;12.50;9.15;;;13.60;99.90;;;;;;4895201;29;20043;-78
2023/09/03 05:15:10;;;;;;;13.32;9.48;;;13.60;99.90;;;;;;4901805;29;20039;-78
2023/09/03 05:17:36;;;;;;;13.93;10.00;;;13.60;99.90;;;;;;4900929;29;20119;-78
2023/09/03 05:20:03;;;;;;;19.85;11.27;;;13.60;99.90;;;;;;4886041;29;20438;-78
2023/09/03 05:22:28;;;;;;;19.00;10.60;;;13.60;99.90;;;;;;4878813;29;20043;-78
2023/09/03 05:24:54;;;;;;;19.25;9.63;;;13.50;99.90;;;;;;4892812;29;20028;-78
2023/09/03 05:27:19;;;;;;;12.57;9.05;;;13.50;99.90;;;;;;4897776;29;20087;-78
2023/09/03 05:29:45;;;;;;;14.13;8.60;;;13.50;99.90;;;;;;4897281;29;20126;-77
2023/09/03 05:32:11;;;;;;;14.13;8.55;;;13.50;99.90;;;;;;4895878;29;20059;-79
2023/09/03 05:34:36;;;;;;;17.58;9.27;;;13.50;99.90;;;;;;4898461;29;20047;-79
2023/09/03 05:37:03;;;;;;;19.55;9.27;;;13.50;99.90;;;;;;4898212;29;20036;-78
2023/09/03 05:39:29;;;;;;;18.65;9.23;;;13.50;99.90;;;;;;4897084;29;20039;-79
2023/09/03 05:41:55;;;;;;;13.68;8.32;;;13.60;99.90;;;;;;4895060;29;20071;-79
2023/09/03 05:44:20;;;;;;;14.15;8.32;;;13.60;99.90;;;;;;4902179;29;20174;-79
2023/09/03 05:46:46;;;;;;;13.75;7.55;;;13.60;99.90;;;;;;4899722;29;20087;-79
2023/09/03 05:49:11;;;;;;;14.95;8.25;;;13.60;99.90;;;;;;4900520;29;20075;-80
2023/09/03 05:51:37;;;;;;;16.70;8.63;;;13.70;99.90;;;;;;4896061;29;20531;-79
2023/09/03 05:54:03;;;;;;;16.17;9.13;;;13.70;99.90;;;;;;4898196;29;20060;-79
2023/09/03 05:56:29;;;;;;;12.85;8.00;;;13.70;99.90;;;;;;4898536;29;20146;-80
2023/09/03 05:58:55;;;;;;;12.68;7.55;;;13.70;99.90;;;;;;4899805;29;20476;-79
2023/09/03 06:01:20;;;;;;;16.42;8.23;;;13.70;99.90;;;;;;4900422;29;20111;-78
2023/09/03 06:03:46;;;;;;;13.98;8.15;;;13.80;99.90;;;;;;4905167;29;20119;-79
2023/09/03 06:06:12;;;;;;;12.02;8.27;;;13.80;99.90;;;;;;4897210;29;20032;-79
2023/09/03 06:08:38;;;;;;;9.88;7.93;;;13.80;99.90;;;;;;4899252;29;20528;-79
2023/09/03 06:11:05;;;;;;;10.52;7.47;;;13.90;99.90;;;;;;4897797;29;20074;-79
2023/09/03 06:13:31;;;;;;;9.85;7.32;;;13.90;99.90;;;;;;4899931;29;20058;-78
2023/09/03 06:15:58;;;;;;;8.48;6.80;;;14.00;99.90;;;;;;4899912;29;20036;-79
2023/09/03 06:18:25;;;;;;;8.73;6.85;;;14.10;99.90;;;;;;4901328;29;20028;-79
2023/09/03 06:20:51;;;;;;;9.35;7.55;;;14.20;99.90;;;;;;4902599;29;20046;-79
2023/09/03 06:23:21;;;;;;;9.77;7.70;;;14.20;99.90;;;;;;4903138;29;20039;-79
2023/09/03 06:25:47;;;;;;;8.38;7.07;;;14.30;99.90;;;;;;4901654;29;20127;-78
2023/09/03 06:28:13;;;;;;;18.38;12.95;;;14.30;99.90;;;;;;4891059;29;20024;-77
2023/09/03 06:30:39;;;;;;;15.30;10.27;;;14.40;99.90;;;;;;4901616;29;20043;-79
2023/09/03 06:33:05;;;;;;;10.07;7.78;;;14.40;99.90;;;;;;4899826;29;20032;-79
2023/09/03 06:35:30;;;;;;;10.40;7.82;;;14.50;99.90;;;;;;4901497;29;20184;-79
2023/09/03 06:37:57;;;;;;;8.75;7.25;;;14.50;99.90;;;;;;4898267;29;20055;-79
2023/09/03 06:40:23;;;;;;;8.63;6.80;;;14.70;99.90;;;;;;4898973;29;20040;-79
2023/09/03 06:42:48;;;;;;;12.75;7.70;;;14.80;99.90;;;;;;4899247;29;20119;-79
2023/09/03 06:45:14;;;;;;;54.72;31.83;;;14.90;99.90;;;;;;4898117;29;20419;-79
2023/09/03 06:47:40;;;;;;;11.55;8.57;;;15.10;99.90;;;;;;4900501;29;20400;-78
2023/09/03 06:50:06;;;;;;;9.77;7.40;;;15.20;99.90;;;;;;4901360;29;20167;-79
2023/09/03 06:52:33;;;;;;;12.07;8.10;;;15.40;99.90;;;;;;4893243;29;20036;-80
2023/09/03 06:54:59;;;;;;;10.38;7.38;;;15.60;99.90;;;;;;4896427;29;20096;-79
2023/09/03 06:57:24;;;;;;;11.95;7.85;;;15.70;99.90;;;;;;4891480;29;20032;-80
2023/09/03 06:59:50;;;;;;;101.20;55.20;;;15.90;99.90;;;;;;4885146;29;20283;-79
2023/09/03 07:02:16;;;;;;;47.83;28.58;;;16.00;99.90;;;;;;4890017;29;20095;-79
2023/09/03 07:04:41;;;;;;;17.42;12.43;;;16.20;99.90;;;;;;4902474;29;20036;-79
2023/09/03 07:07:09;;;;;;;18.60;11.63;;;16.40;99.90;;;;;;4887630;29;20051;-78
2023/09/03 07:09:34;;;;;;;12.30;8.52;;;16.60;99.90;;;;;;4884291;29;20036;-81
2023/09/03 07:12:01;;;;;;;14.05;8.55;;;16.60;99.90;;;;;;4894473;29;20055;-80
2023/09/03 07:14:30;;;;;;;11.82;7.88;;;16.70;99.90;;;;;;4554820;29;10000033;-81
2023/09/03 07:16:55;;;;;;;11.18;7.75;;;16.80;99.90;;;;;;4898353;29;20051;-80
2023/09/03 07:19:22;;;;;;;13.40;8.57;;;16.90;99.90;;;;;;4888441;29;20032;-83
2023/09/03 07:21:48;;;;;;;13.80;8.30;;;17.10;99.90;;;;;;4885379;29;20121;-83
2023/09/03 07:24:15;;;;;;;12.32;8.10;;;17.30;99.90;;;;;;4896293;29;20028;-82
2023/09/03 07:26:40;;;;;;;13.68;8.70;;;17.50;99.90;;;;;;4897737;29;20369;-83
2023/09/03 07:29:06;;;;;;;13.48;9.27;;;17.60;99.90;;;;;;4903461;29;20036;-83
2023/09/03 07:31:32;;;;;;;12.98;9.13;;;17.70;99.90;;;;;;4899642;29;20115;-82
2023/09/03 07:33:59;;;;;;;11.88;8.70;;;17.90;99.90;;;;;;4901316;29;20043;-80
2023/09/03 07:36:25;;;;;;;14.30;9.90;;;17.90;99.90;;;;;;4898295;29;20415;-82
2023/09/03 07:38:51;;;;;;;14.25;10.07;;;18.10;99.90;;;;;;4895136;29;20040;-82
2023/09/03 07:41:16;;;;;;;13.73;9.18;;;18.20;99.90;;;;;;4892049;29;20040;-81
2023/09/03 07:43:42;;;;;;;13.70;9.55;;;18.40;99.90;;;;;;4915480;29;20040;-80
2023/09/03 07:46:08;;;;;;;10.27;7.90;;;19.60;99.90;;;;;;4894601;29;20055;-81
2023/09/03 07:48:34;;;;;;;9.95;7.75;;;21.30;99.90;;;;;;4896384;29;20357;-82
2023/09/03 07:51:00;;;;;;;12.25;9.70;;;23.10;99.90;;;;;;4894244;29;20040;-75
2023/09/03 07:53:25;;;;;;;9.55;7.25;;;25.10;99.90;;;;;;4893675;29;20092;-81
2023/09/03 07:55:51;;;;;;;9.82;8.45;;;27.00;99.90;;;;;;4889168;29;20267;-81
2023/09/03 07:58:17;;;;;;;8.90;6.60;;;28.70;99.90;;;;;;4891036;29;20418;-75
2023/09/03 08:00:42;;;;;;;10.63;8.02;;;29.70;99.90;;;;;;4897358;29;20111;-76
2023/09/03 08:03:08;;;;;;;10.38;6.78;;;30.30;98.30;;;;;;4893347;29;20028;-74
2023/09/03 08:05:34;;;;;;;9.63;7.43;;;30.70;96.40;;;;;;4900393;29;20043;-73
2023/09/03 08:07:59;;;;;;;8.38;5.70;;;31.20;95.40;;;;;;4895546;29;20032;-72
2023/09/03 08:10:26;;;;;;;6.13;5.53;;;31.70;94.50;;;;;;4893552;29;20055;-75
2023/09/03 08:12:51;;;;;;;9.60;6.57;;;31.80;91.70;;;;;;4899143;29;20028;-75
2023/09/03 08:15:17;;;;;;;7.30;5.90;;;31.70;92.60;;;;;;4898770;29;20176;-74
2023/09/03 08:17:43;;;;;;;7.05;6.35;;;31.50;92.60;;;;;;4899293;29;20123;-73
2023/09/03 08:20:09;;;;;;;7.90;6.40;;;31.30;92.80;;;;;;4897117;29;20032;-74
2023/09/03 08:22:36;;;;;;;10.20;6.28;;;31.30;91.80;;;;;;4909933;29;20127;-72
2023/09/03 08:25:02;;;;;;;11.45;7.15;;;31.40;91.50;;;;;;4898544;29;20092;-73
2023/09/03 08:27:27;;;;;;;8.55;6.10;;;31.70;90.10;;;;;;4892890;29;20047;-78
2023/09/03 08:29:53;;;;;;;6.47;5.70;;;31.90;89.10;;;;;;4899557;29;20191;-77
2023/09/03 08:32:18;;;;;;;9.48;5.53;;;32.00;88.40;;;;;;4902122;29;20032;-75
2023/09/03 08:34:44;;;;;;;7.07;5.95;;;32.00;91.60;;;;;;4893051;29;20086;-72
2023/09/03 08:37:09;;;;;;;7.53;5.25;;;32.30;86.20;;;;;;4915255;29;20064;-72
2023/09/03 08:39:35;;;;;;;6.50;5.60;;;32.40;87.20;;;;;;4916168;29;20032;-73
2023/09/03 08:42:02;;;;;;;5.65;4.40;;;32.60;85.90;;;;;;4910867;29;20480;-76
2023/09/03 08:44:52;;;;;;;6.75;5.82;;;32.80;89.80;;;;;;4900427;29;20461;-75
2023/09/03 08:47:18;;;;;;;7.97;4.75;;;33.20;83.10;;;;;;4896652;29;20435;-80
2023/09/03 08:49:45;;;;;;;5.18;4.00;;;33.30;82.90;;;;;;4901110;29;20060;-76
2023/09/03 08:52:11;;;;;;;6.10;4.28;;;33.80;82.70;;;;;;4899727;29;20143;-83
2023/09/03 08:54:38;;;;;;;6.22;4.47;;;34.40;80.60;;;;;;4898264;29;20031;-83
2023/09/03 08:57:05;;;;;;;8.30;4.65;;;34.70;77.00;;;;;;4895349;29;20036;-77
2023/09/03 08:59:31;;;;;;;9.00;4.57;;;35.10;75.90;;;;;;4892076;29;20062;-81
2023/09/03 09:01:59;;;;;;;7.30;4.90;;;35.10;71.50;;;;;;4896388;29;20032;-80
2023/09/03 09:04:29;;;;;;;4.05;3.55;;;35.10;73.90;;;;;;4889595;29;20032;-70
2023/09/03 09:06:58;;;;;;;5.32;3.90;;;34.90;73.10;;;;;;4886211;29;20120;-76
2023/09/03 09:09:26;;;;;;;6.82;3.83;;;34.90;74.40;;;;;;4888037;29;20047;-76
2023/09/03 09:12:19;;;;;;;3.85;3.13;;;35.20;72.60;;;;;;4892892;29;20091;-75
2023/09/03 09:14:52;;;;;;;6.35;4.13;;;35.50;71.50;;;;;;4890089;29;20352;-74
2023/09/03 09:17:18;;;;;;;7.20;4.40;;;36.10;68.70;;;;;;4890257;29;20098;-72
2023/09/03 09:19:43;;;;;;;6.55;2.85;;;36.80;67.70;;;;;;4887261;29;20040;-72
2023/09/03 09:22:10;;;;;;;5.13;2.80;;;37.20;63.30;;;;;;4891088;29;20028;-73
2023/09/03 09:24:44;;;;;;;7.60;4.53;;;37.60;65.70;;;;;;4548135;29;9999841;-73
2023/09/03 09:27:19;;;;;;;4.75;2.63;;;38.00;58.90;;;;;;4888286;29;20042;-73
2023/09/03 09:29:46;;;;;;;4.30;3.67;;;38.10;61.00;;;;;;4892610;29;20075;-72
2023/09/03 09:32:24;;;;;;;5.18;3.83;;;38.50;59.50;;;;;;4890441;29;20024;-72
2023/09/03 09:34:50;;;;;;;6.97;3.80;;;38.10;59.20;;;;;;4896539;29;20032;-73
2023/09/03 09:37:16;;;;;;;6.05;3.38;;;37.50;58.60;;;;;;4899569;29;20088;-73
2023/09/03 09:39:46;;;;;;;4.97;3.30;;;37.10;62.50;;;;;;4890430;29;20037;-74
2023/09/03 09:42:13;;;;;;;5.95;4.35;;;37.20;62.20;;;;;;4890642;29;20024;-73
2023/09/03 09:45:00;;;;;;;5.05;3.33;;;37.50;58.60;;;;;;4901615;29;20055;-72
2023/09/03 09:47:27;;;;;;;5.07;3.80;;;38.10;59.90;;;;;;4898648;29;20184;-72
2023/09/03 09:49:53;;;;;;;3.78;2.20;;;38.80;54.30;;;;;;4898802;29;20135;-73
2023/09/03 09:52:19;;;;;;;3.05;2.17;;;39.00;57.40;;;;;;4901641;29;20508;-73
2023/09/03 09:54:46;;;;;;;3.50;2.90;;;39.50;56.70;;;;;;4897245;29;20541;-73
2023/09/03 09:57:13;;;;;;;4.25;3.38;;;39.80;56.40;;;;;;4893952;29;20436;-73
2023/09/03 09:59:39;;;;;;;4.70;2.83;;;39.50;53.50;;;;;;4902503;29;20153;-72
2023/09/03 10:02:15;;;;;;;6.03;3.60;;;39.00;56.40;;;;;;4902317;29;20115;-74
2023/09/03 10:04:46;;;;;;;4.90;2.33;;;38.60;56.00;;;;;;4901096;29;20111;-73
2023/09/03 10:07:13;;;;;;;4.13;2.78;;;38.70;58.30;;;;;;4894315;29;20080;-73
2023/09/03 10:09:40;;;;;;;4.55;4.05;;;39.00;57.70;;;;;;4898227;29;20040;-73
2023/09/03 10:12:07;;;;;;;3.65;2.70;;;38.90;56.20;;;;;;4895304;29;20031;-73
2023/09/03 10:14:33;;;;;;;4.85;3.20;;;38.50;55.70;;;;;;4897497;29;20040;-73
2023/09/03 10:17:04;;;;;;;3.83;3.40;;;38.50;54.80;;;;;;4902834;29;20020;-73
2023/09/03 10:19:44;;;;;;;4.05;2.85;;;38.90;53.00;;;;;;4902095;29;20119;-73
2023/09/03 10:22:16;;;;;;;4.63;3.05;;;38.80;57.10;;;;;;4899799;29;20579;-73
2023/09/03 10:24:46;;;;;;;5.28;4.78;;;38.80;55.70;;;;;;4893601;29;20032;-73
2023/09/03 10:27:16;;;;;;;4.38;2.97;;;39.00;50.90;;;;;;4896378;29;20070;-73
2023/09/03 10:29:44;;;;;;;5.70;3.97;;;38.80;54.40;;;;;;4886944;29;20492;-73
2023/09/03 10:32:11;;;;;;;6.10;3.65;;;39.20;52.40;;;;;;4899836;29;20046;-74
2023/09/03 10:34:37;;;;;;;6.43;4.15;;;39.90;54.50;;;;;;4902286;29;20117;-74
2023/09/03 10:37:10;;;;;;;4.38;2.90;;;40.60;50.60;;;;;;4901585;29;20035;-74
2023/09/03 10:39:40;;;;;;;5.65;3.35;;;41.10;50.30;;;;;;4899046;29;20059;-74
2023/09/03 10:42:15;;;;;;;6.85;3.72;;;40.60;48.00;;;;;;4898820;29;20032;-73
2023/09/03 10:44:44;;;;;;;5.00;3.65;;;38.70;50.80;;;;;;4899646;29;20039;-73
2023/09/03 10:47:17;;;;;;;5.30;3.10;;;37.90;56.10;;;;;;4884966;29;20044;-73
2023/09/03 10:49:48;;;;;;;5.18;3.75;;;38.00;54.30;;;;;;4898975;29;20092;-74
2023/09/03 10:52:30;;;;;;;3.75;2.92;;;38.80;52.00;;;;;;4898765;29;20043;-74
2023/09/03 10:55:19;;;;;;;5.07;3.08;;;39.50;53.00;;;;;;4900391;29;20040;-73
2023/09/03 10:57:46;;;;;;;3.95;1.80;;;40.00;52.50;;;;;;4899858;29;20032;-74
2023/09/03 11:00:18;;;;;;;3.97;2.72;;;39.90;55.10;;;;;;4900579;29;20123;-73
2023/09/03 11:02:44;;;;;;;4.50;4.10;;;39.40;51.30;;;;;;4891580;29;20028;-73
2023/09/03 11:05:11;;;;;;;4.32;2.88;;;38.50;51.50;;;;;;4884136;29;20438;-73
2023/09/03 11:07:37;;;;;;;4.88;4.18;;;37.40;53.70;;;;;;4891862;29;20448;-74
2023/09/03 11:10:35;;;;;;;6.75;3.45;;;36.00;57.60;;;;;;4900520;29;20079;-73
2023/09/03 11:13:04;;;;;;;4.68;3.30;;;34.90;64.90;;;;;;4874596;29;20036;-73
2023/09/03 11:15:29;;;;;;;4.93;3.17;;;35.50;58.80;;;;;;4883885;29;20378;-73
2023/09/03 11:17:56;;;;;;;3.97;2.35;;;36.90;60.00;;;;;;4895242;29;20025;-73
2023/09/03 11:20:34;;;;;;;2.83;2.40;;;37.80;58.60;;;;;;4900251;29;20128;-73
2023/09/03 11:23:01;;;;;;;4.18;3.00;;;38.50;60.50;;;;;;4888336;29;20084;-73
2023/09/03 11:25:45;;;;;;;7.13;3.85;;;38.60;56.80;;;;;;4899661;29;20322;-73
2023/09/03 11:28:12;;;;;;;4.93;3.65;;;37.80;55.00;;;;;;4900303;29;20036;-73
2023/09/03 11:30:42;;;;;;;7.43;6.05;;;37.00;56.30;;;;;;4901051;29;20135;-73
2023/09/03 11:33:10;;;;;;;5.32;4.32;;;35.40;55.10;;;;;;4898190;29;20024;-72
2023/09/03 11:35:54;;;;;;;5.82;4.57;;;34.70;64.50;;;;;;4899791;29;20044;-73
2023/09/03 11:38:27;;;;;;;4.15;3.50;;;34.30;61.60;;;;;;4899334;29;20432;-72
2023/09/03 11:40:57;;;;;;;6.38;4.18;;;33.90;68.40;;;;;;4901307;29;20032;-72
2023/09/03 11:43:23;;;;;;;5.47;4.30;;;33.40;62.40;;;;;;4890334;29;20036;-73
2023/09/03 11:45:49;;;;;;;5.72;4.10;;;33.10;67.70;;;;;;4893961;29;20511;-73
2023/09/03 11:48:15;;;;;;;7.35;4.93;;;32.90;67.60;;;;;;4903568;29;20052;-72
2023/09/03 11:50:40;;;;;;;6.38;4.78;;;32.40;64.60;;;;;;4901007;29;20066;-72
2023/09/03 11:53:08;;;;;;;5.97;4.75;;;31.70;67.00;;;;;;4900312;29;20039;-72
2023/09/03 11:55:42;;;;;;;7.03;4.65;;;31.00;72.90;;;;;;4896038;29;20889;-72
2023/09/03 11:58:10;;;;;;;7.53;5.18;;;30.80;82.40;;;;;;4898277;29;20062;-72
2023/09/03 12:00:36;;;;;;;4.45;3.85;;;30.80;85.10;;;;;;4903758;29;20036;-72
2023/09/03 12:03:03;;;;;;;7.28;3.40;;;30.60;84.80;;;;;;4897374;29;20032;-74
2023/09/03 12:05:29;;;;;;;4.75;3.30;;;30.70;93.40;;;;;;4893981;29;20127;-72
2023/09/03 12:08:01;;;;;;;5.55;3.88;;;30.90;90.70;;;;;;4892931;29;20063;-73
2023/09/03 12:10:27;;;;;;;4.97;3.75;;;31.20;90.50;;;;;;4906697;29;20040;-72
2023/09/03 12:12:53;;;;;;;4.90;4.22;;;31.50;86.30;;;;;;4892653;29;20032;-72
2023/09/03 12:15:20;;;;;;;4.97;4.03;;;31.40;82.60;;;;;;4890904;29;20118;-72
2023/09/03 12:17:46;;;;;;;3.38;2.95;;;31.60;82.80;;;;;;4893264;29;20291;-73
2023/09/03 12:20:41;;;;;;;4.93;2.83;;;31.60;83.40;;;;;;4892109;29;20315;-72
2023/09/03 12:23:14;;;;;;;6.22;4.25;;;32.00;83.30;;;;;;4896171;29;20076;-72
2023/09/03 12:25:40;;;;;;;5.18;3.90;;;32.00;76.60;;;;;;4894745;29;20203;-75
2023/09/03 12:28:07;;;;;;;7.15;4.28;;;31.50;80.00;;;;;;4896416;29;20123;-72
2023/09/03 12:30:56;;;;;;;5.90;4.13;;;31.40;84.50;;;;;;4896960;29;20078;-72
2023/09/03 12:33:26;;;;;;;5.45;3.67;;;31.30;87.60;;;;;;4897439;29;20036;-72
2023/09/03 12:36:18;;;;;;;6.25;4.10;;;31.30;88.30;;;;;;4903428;29;20055;-72
2023/09/03 12:38:56;;;;;;;4.55;4.10;;;31.10;80.30;;;;;;4898488;29;20042;-74
2023/09/03 12:41:24;;;;;;;4.85;3.97;;;30.50;86.60;;;;;;4896416;29;20040;-74
2023/09/03 12:43:50;;;;;;;4.20;3.80;;;30.10;87.00;;;;;;4892849;29;20059;-74